Terminal Aerodrome Forecast
Issued by NWS

Home | Current Version | Previous Version | Graphics & Text | Print | Product List | Glossary On
Versions: 1 2 3 4 5 6 7 8 9 10 11 12
171
FTUS43 KTOP 031719 AAA
TAFMHK
TAF AMD
KMHK 031719Z 0317/0412 32014G24KT P6SM SCT035
     FM040000 29006KT P6SM FEW100=

USA.gov is the U.S. government's official web portal to all federal, state and local government web resources and services.